Time;durP1;ratioP1;P1;durP2;ratioP2;P2;SDS_P1;SDS_P2;PMS_P1;PMS_P2;Temp;Humidity;BMP_temperature;BMP_pressure;BME280_temperature;BME280_humidity;BME280_pressure;Samples;Min_cycle;Max_cycle;Signal;HPM_P1;HPM_P2
2023/03/29 00:01:35;;;;;;;6.13;0.60;;;5.50;99.90;;;;;;5056304;28;20450;-85
2023/03/29 00:04:03;;;;;;;0.50;0.50;;;5.50;99.90;;;;;;5056204;28;20446;-85
2023/03/29 00:06:31;;;;;;;0.90;0.50;;;5.50;99.90;;;;;;5056198;28;20457;-85
2023/03/29 00:08:58;;;;;;;0.97;0.50;;;5.50;99.90;;;;;;5055674;28;21004;-85
2023/03/29 00:11:26;;;;;;;0.63;0.40;;;5.40;99.90;;;;;;5055636;28;20989;-85
2023/03/29 00:13:53;;;;;;;1.70;0.60;;;5.40;99.90;;;;;;5055916;28;20443;-85
2023/03/29 00:16:20;;;;;;;0.43;0.40;;;5.40;99.90;;;;;;5056046;28;20453;-85
2023/03/29 00:18:47;;;;;;;0.43;0.40;;;5.40;99.90;;;;;;5055663;28;20454;-85
2023/03/29 00:21:15;;;;;;;0.50;0.50;;;5.40;99.90;;;;;;5056139;28;20446;-85
2023/03/29 00:23:42;;;;;;;4.43;1.23;;;5.40;99.90;;;;;;5055955;28;20926;-85
2023/03/29 00:26:09;;;;;;;0.40;0.30;;;5.50;99.90;;;;;;5055658;28;20946;-85
2023/03/29 00:28:36;;;;;;;0.70;0.70;;;5.40;99.90;;;;;;5055762;28;20454;-85
2023/03/29 00:31:08;;;;;;;0.50;0.50;;;5.40;99.90;;;;;;5055747;28;20489;-85
2023/03/29 00:33:35;;;;;;;0.40;0.40;;;5.40;99.90;;;;;;5055726;28;20442;-84
2023/03/29 00:36:03;;;;;;;0.60;0.60;;;5.40;99.90;;;;;;5055760;28;20446;-85
2023/03/29 00:38:32;;;;;;;8.80;0.97;;;5.40;99.90;;;;;;5054949;28;20459;-85
2023/03/29 00:40:59;;;;;;;2.40;0.40;;;5.40;99.90;;;;;;5055540;28;20438;-85
2023/03/29 00:43:26;;;;;;;0.50;0.50;;;5.40;99.90;;;;;;5055561;28;20461;-85
2023/03/29 00:45:53;;;;;;;1.43;0.60;;;5.40;99.90;;;;;;5055721;28;20446;-85
2023/03/29 00:48:23;;;;;;;1.73;0.50;;;5.40;99.90;;;;;;5055090;28;20437;-86
2023/03/29 00:50:53;;;;;;;0.40;0.30;;;5.40;99.90;;;;;;5056149;28;20477;-86
2023/03/29 00:53:26;;;;;;;0.40;0.30;;;5.40;99.90;;;;;;5055436;28;20430;-85
2023/03/29 00:55:58;;;;;;;0.70;0.40;;;5.40;99.90;;;;;;5055421;28;20489;-85
2023/03/29 00:58:30;;;;;;;0.40;0.40;;;5.40;99.90;;;;;;5054874;28;20435;-85
2023/03/29 01:01:01;;;;;;;2.10;0.50;;;5.30;99.90;;;;;;5055253;28;20438;-85
2023/03/29 01:03:33;;;;;;;0.47;0.40;;;5.30;99.90;;;;;;5055227;28;20497;-85
2023/03/29 01:06:04;;;;;;;0.30;0.30;;;5.40;99.90;;;;;;5055355;28;20434;-86
2023/03/29 01:08:34;;;;;;;1.23;0.50;;;5.30;99.90;;;;;;5055079;28;20430;-86
2023/03/29 01:11:06;;;;;;;1.27;0.40;;;5.30;99.90;;;;;;5054680;28;20849;-85
2023/03/29 01:13:38;;;;;;;0.60;0.60;;;5.30;99.90;;;;;;5055051;28;20435;-85
2023/03/29 01:16:07;;;;;;;0.40;0.30;;;5.30;99.90;;;;;;5055201;28;20442;-86
2023/03/29 01:18:35;;;;;;;0.60;0.40;;;5.30;99.90;;;;;;5054923;28;20482;-83
2023/03/29 01:21:15;;;;;;;0.40;0.40;;;5.20;99.90;;;;;;5055117;28;20438;-83
2023/03/29 01:24:05;;;;;;;1.23;0.47;;;5.30;99.90;;;;;;5054894;28;20438;-83
2023/03/29 01:26:42;;;;;;;0.30;0.30;;;5.30;99.90;;;;;;5054890;28;20435;-84
2023/03/29 01:29:15;;;;;;;0.40;0.40;;;5.20;99.90;;;;;;5054657;28;21072;-84
2023/03/29 01:31:47;;;;;;;0.50;0.30;;;5.30;99.90;;;;;;5054701;28;20474;-83
2023/03/29 01:34:19;;;;;;;1.13;0.80;;;5.30;99.90;;;;;;5054747;28;20415;-84
2023/03/29 01:36:53;;;;;;;0.30;0.30;;;5.30;99.90;;;;;;5054946;28;20415;-84
2023/03/29 01:39:20;;;;;;;0.30;0.20;;;5.30;99.90;;;;;;5054378;28;20461;-83
2023/03/29 01:41:55;;;;;;;0.40;0.30;;;5.30;99.90;;;;;;5054482;28;20529;-84
2023/03/29 01:44:31;;;;;;;0.40;0.40;;;5.30;99.90;;;;;;5054441;28;20431;-84
2023/03/29 01:47:06;;;;;;;0.50;0.50;;;5.30;99.90;;;;;;5054195;28;20438;-85
2023/03/29 01:49:38;;;;;;;0.50;0.50;;;5.40;99.90;;;;;;5054276;28;20462;-85
2023/03/29 01:52:11;;;;;;;0.30;0.30;;;5.40;99.90;;;;;;5052979;28;20995;-84
2023/03/29 01:54:43;;;;;;;0.67;0.47;;;5.40;99.90;;;;;;5054797;28;20841;-85
2023/03/29 01:57:10;;;;;;;0.30;0.30;;;5.50;99.90;;;;;;5054221;28;20439;-85
2023/03/29 01:59:42;;;;;;;0.30;0.30;;;5.50;99.90;;;;;;5054098;28;20471;-84
2023/03/29 02:02:13;;;;;;;1.10;0.67;;;5.50;99.90;;;;;;5054162;28;20427;-84
2023/03/29 02:04:48;;;;;;;0.93;0.50;;;5.50;99.90;;;;;;5054118;28;20470;-85
2023/03/29 02:07:17;;;;;;;0.40;0.40;;;5.60;99.90;;;;;;5054159;28;20789;-85
2023/03/29 02:09:47;;;;;;;0.40;0.40;;;5.70;99.90;;;;;;5053319;28;20475;-85
2023/03/29 02:12:16;;;;;;;1.73;0.40;;;5.70;99.90;;;;;;5053522;28;20471;-85
2023/03/29 02:14:45;;;;;;;0.40;0.30;;;5.70;99.90;;;;;;5053885;28;20541;-85
2023/03/29 02:17:17;;;;;;;0.57;0.57;;;5.70;99.90;;;;;;5053831;28;20447;-85
2023/03/29 02:19:48;;;;;;;0.50;0.50;;;5.70;99.90;;;;;;5053946;28;20467;-85
2023/03/29 02:22:18;;;;;;;0.37;0.27;;;5.70;99.90;;;;;;5053855;28;20438;-85
2023/03/29 02:24:47;;;;;;;0.50;0.40;;;5.70;99.90;;;;;;5053567;28;20816;-84
2023/03/29 02:27:14;;;;;;;0.60;0.60;;;5.80;99.90;;;;;;5053811;28;20474;-83
2023/03/29 02:29:41;;;;;;;0.40;0.30;;;5.80;99.90;;;;;;5053215;28;20463;-83
2023/03/29 02:32:15;;;;;;;0.40;0.40;;;5.80;99.90;;;;;;5053316;28;20843;-83
2023/03/29 02:34:48;;;;;;;0.40;0.40;;;5.80;99.90;;;;;;5054326;28;20438;-84
2023/03/29 02:37:17;;;;;;;0.40;0.40;;;5.80;99.90;;;;;;5053772;28;20431;-83
2023/03/29 02:39:47;;;;;;;0.40;0.40;;;5.90;99.90;;;;;;5053585;28;20536;-83
2023/03/29 02:42:16;;;;;;;0.87;0.30;;;5.90;99.90;;;;;;5053095;28;20442;-83
2023/03/29 02:44:45;;;;;;;0.40;0.40;;;5.90;99.90;;;;;;5053355;28;20497;-83
2023/03/29 02:47:17;;;;;;;0.50;0.50;;;5.90;99.90;;;;;;5053363;28;20449;-83
2023/03/29 02:49:43;;;;;;;0.30;0.30;;;5.90;99.90;;;;;;5053022;28;20462;-83
2023/03/29 02:52:14;;;;;;;0.40;0.30;;;5.90;99.90;;;;;;5053197;28;20486;-83
2023/03/29 02:54:42;;;;;;;0.80;0.50;;;6.00;99.90;;;;;;5053516;28;20501;-84
2023/03/29 02:57:10;;;;;;;0.40;0.33;;;6.00;99.90;;;;;;5053335;28;20461;-83
2023/03/29 02:59:39;;;;;;;0.30;0.30;;;6.00;99.90;;;;;;5053008;28;20458;-83
2023/03/29 03:02:06;;;;;;;0.57;0.57;;;6.10;99.90;;;;;;5053952;28;20456;-83
2023/03/29 03:04:35;;;;;;;0.50;0.40;;;6.10;99.90;;;;;;5057170;28;20493;-83
2023/03/29 03:07:03;;;;;;;0.60;0.40;;;6.10;99.90;;;;;;5056987;28;20953;-83
2023/03/29 03:09:30;;;;;;;1.03;0.40;;;6.10;99.90;;;;;;5056668;28;20998;-83
2023/03/29 03:11:57;;;;;;;4.53;1.03;;;6.20;99.90;;;;;;5057132;28;20470;-83
2023/03/29 03:14:24;;;;;;;0.50;0.50;;;6.30;99.90;;;;;;5057144;28;20930;-83
2023/03/29 03:16:51;;;;;;;0.40;0.37;;;6.30;99.90;;;;;;5056938;28;20435;-84
2023/03/29 03:19:18;;;;;;;0.30;0.30;;;6.30;99.90;;;;;;5056731;28;20982;-83
2023/03/29 03:21:46;;;;;;;0.63;0.40;;;6.40;99.90;;;;;;5057858;28;20813;-84
2023/03/29 03:24:14;;;;;;;0.50;0.40;;;6.40;99.90;;;;;;5056822;28;20964;-83
2023/03/29 03:26:41;;;;;;;0.30;0.20;;;6.40;99.90;;;;;;5057338;28;20451;-84
2023/03/29 03:29:07;;;;;;;0.60;0.43;;;6.50;99.90;;;;;;5056562;28;20462;-84
2023/03/29 03:31:34;;;;;;;0.50;0.40;;;6.50;99.90;;;;;;5056626;28;20457;-83
2023/03/29 03:34:01;;;;;;;0.57;0.57;;;6.50;99.90;;;;;;5060607;28;20450;-83
2023/03/29 03:36:30;;;;;;;0.93;0.40;;;6.50;99.90;;;;;;5057406;28;20446;-83
2023/03/29 03:38:58;;;;;;;1.53;0.50;;;6.50;99.90;;;;;;5056899;28;20460;-84
2023/03/29 03:41:25;;;;;;;2.10;0.83;;;6.60;99.90;;;;;;5056943;28;20532;-84
2023/03/29 03:43:52;;;;;;;0.30;0.30;;;6.60;99.90;;;;;;5056791;28;20442;-84
2023/03/29 03:46:19;;;;;;;0.30;0.30;;;6.60;99.90;;;;;;5056861;28;20450;-84
2023/03/29 03:48:46;;;;;;;0.40;0.30;;;6.60;99.90;;;;;;5057534;28;20989;-83
2023/03/29 03:51:13;;;;;;;2.30;0.50;;;6.60;99.90;;;;;;5056803;28;20450;-83
2023/03/29 03:53:40;;;;;;;0.60;0.40;;;6.60;99.90;;;;;;5056204;28;20490;-84
2023/03/29 03:56:09;;;;;;;0.40;0.30;;;6.60;99.90;;;;;;5057057;28;20538;-83
2023/03/29 03:58:36;;;;;;;4.10;0.60;;;6.60;99.90;;;;;;5056377;28;20537;-84
2023/03/29 04:01:04;;;;;;;0.37;0.30;;;6.60;99.90;;;;;;5056120;28;20980;-84
2023/03/29 04:03:31;;;;;;;1.57;0.40;;;6.60;99.90;;;;;;5056171;28;20824;-83
2023/03/29 04:06:00;;;;;;;0.30;0.27;;;6.60;99.90;;;;;;5056280;28;20454;-84
2023/03/29 04:08:27;;;;;;;0.40;0.40;;;6.60;99.90;;;;;;5055972;28;20461;-83
2023/03/29 04:10:56;;;;;;;0.77;0.40;;;6.70;99.90;;;;;;5056131;28;20830;-83
2023/03/29 04:13:24;;;;;;;0.30;0.30;;;6.80;99.90;;;;;;5055248;28;20467;-83
2023/03/29 04:15:52;;;;;;;0.40;0.40;;;6.80;99.90;;;;;;5055867;28;20461;-83
2023/03/29 04:18:20;;;;;;;0.40;0.40;;;6.80;99.90;;;;;;5055876;28;20450;-84
2023/03/29 04:20:47;;;;;;;0.40;0.40;;;6.80;99.90;;;;;;5056609;28;20442;-84
2023/03/29 04:23:14;;;;;;;0.57;0.57;;;6.80;99.90;;;;;;5055685;28;20447;-84
2023/03/29 04:25:41;;;;;;;0.70;0.40;;;6.80;99.90;;;;;;5055717;28;20978;-85
2023/03/29 04:28:09;;;;;;;1.03;0.70;;;6.80;99.90;;;;;;5055989;28;20457;-85
2023/03/29 04:30:37;;;;;;;0.77;0.30;;;6.80;99.90;;;;;;5055952;28;20481;-85
2023/03/29 04:33:04;;;;;;;0.40;0.30;;;6.80;99.90;;;;;;5056055;28;20474;-84
2023/03/29 04:35:31;;;;;;;0.70;0.70;;;6.80;99.90;;;;;;5055833;28;20436;-85
2023/03/29 04:37:57;;;;;;;0.40;0.30;;;6.70;99.90;;;;;;5055753;28;20451;-85
2023/03/29 04:40:24;;;;;;;1.17;0.50;;;6.80;99.90;;;;;;5055702;28;21004;-85
2023/03/29 04:42:51;;;;;;;0.30;0.30;;;6.80;99.90;;;;;;5056144;28;20439;-85
2023/03/29 04:45:18;;;;;;;1.00;0.30;;;6.80;99.90;;;;;;5055801;28;20452;-85
2023/03/29 04:47:46;;;;;;;0.40;0.30;;;6.80;99.90;;;;;;5055675;28;20443;-85
2023/03/29 04:50:13;;;;;;;0.40;0.30;;;6.80;99.90;;;;;;5055867;28;20463;-85
2023/03/29 04:52:40;;;;;;;0.40;0.30;;;6.90;99.90;;;;;;5055181;28;21052;-85
2023/03/29 04:55:08;;;;;;;0.40;0.40;;;6.90;99.90;;;;;;5055317;28;20450;-85
2023/03/29 04:57:34;;;;;;;0.30;0.30;;;7.00;99.90;;;;;;5055297;28;20457;-85
2023/03/29 05:00:07;;;;;;;1.63;0.40;;;7.00;99.90;;;;;;5055239;28;20471;-85
2023/03/29 05:02:33;;;;;;;0.60;0.30;;;7.00;99.90;;;;;;5055680;28;20427;-85
2023/03/29 05:05:02;;;;;;;0.40;0.33;;;7.00;99.90;;;;;;5055606;28;20450;-85
2023/03/29 05:07:29;;;;;;;0.40;0.30;;;7.00;99.90;;;;;;5055246;28;20443;-85
2023/03/29 05:09:56;;;;;;;0.40;0.40;;;7.00;99.90;;;;;;5055365;28;20486;-85
2023/03/29 05:12:22;;;;;;;0.43;0.43;;;7.10;99.90;;;;;;5055353;28;20486;-85
2023/03/29 05:14:50;;;;;;;2.20;0.60;;;7.10;99.90;;;;;;5054895;28;20451;-85
2023/03/29 05:17:17;;;;;;;0.40;0.40;;;7.10;99.90;;;;;;5055259;28;20450;-85
2023/03/29 05:19:44;;;;;;;1.47;0.40;;;7.10;99.90;;;;;;5054949;28;20482;-85
2023/03/29 05:22:12;;;;;;;0.67;0.40;;;7.10;99.90;;;;;;5055121;28;20811;-85
2023/03/29 05:24:40;;;;;;;0.40;0.30;;;7.10;99.90;;;;;;5054879;28;20454;-84
2023/03/29 05:27:07;;;;;;;0.40;0.30;;;7.20;99.90;;;;;;5054887;28;20451;-85
2023/03/29 05:29:34;;;;;;;0.40;0.30;;;7.20;99.90;;;;;;5054894;28;20474;-85
2023/03/29 05:32:01;;;;;;;0.73;0.40;;;7.20;99.90;;;;;;5054502;28;20427;-85
2023/03/29 05:34:28;;;;;;;0.50;0.50;;;7.20;99.90;;;;;;5055090;28;20457;-85
2023/03/29 05:36:55;;;;;;;1.00;0.97;;;7.30;99.90;;;;;;5054902;28;20461;-85
2023/03/29 05:39:23;;;;;;;0.33;0.33;;;7.40;99.90;;;;;;5054726;28;20470;-85
2023/03/29 05:41:50;;;;;;;0.30;0.20;;;7.40;99.90;;;;;;5054704;28;20461;-85
2023/03/29 05:44:17;;;;;;;0.50;0.40;;;7.40;99.90;;;;;;5054344;28;20926;-85
2023/03/29 05:46:43;;;;;;;0.57;0.43;;;7.40;99.90;;;;;;5054545;28;20450;-85
2023/03/29 05:49:11;;;;;;;0.30;0.30;;;7.40;99.90;;;;;;5054468;28;20474;-84
2023/03/29 05:51:38;;;;;;;0.33;0.30;;;7.40;99.90;;;;;;5054432;28;20454;-85
2023/03/29 05:54:05;;;;;;;0.30;0.30;;;7.50;99.90;;;;;;5054223;28;20493;-85
2023/03/29 05:56:34;;;;;;;0.40;0.30;;;7.50;99.90;;;;;;5054455;28;20525;-85
2023/03/29 05:59:01;;;;;;;0.30;0.30;;;7.60;99.90;;;;;;5054591;28;20481;-85
2023/03/29 06:01:28;;;;;;;0.30;0.30;;;7.60;99.90;;;;;;5054358;28;20442;-85
2023/03/29 06:03:56;;;;;;;0.43;0.30;;;7.70;99.90;;;;;;5054134;28;20496;-85
2023/03/29 06:06:23;;;;;;;0.60;0.43;;;7.80;99.90;;;;;;5053859;28;20465;-85
2023/03/29 06:08:49;;;;;;;0.30;0.30;;;7.90;99.90;;;;;;5054191;28;20977;-85
2023/03/29 06:11:16;;;;;;;0.67;0.40;;;7.90;99.90;;;;;;5053985;28;20482;-85
2023/03/29 06:13:44;;;;;;;0.33;0.33;;;8.00;99.90;;;;;;5054198;28;20986;-85
2023/03/29 06:16:12;;;;;;;0.30;0.30;;;8.10;99.90;;;;;;5053744;28;20968;-85
2023/03/29 06:18:39;;;;;;;1.70;0.50;;;8.20;99.90;;;;;;5054293;28;20492;-85
2023/03/29 06:21:08;;;;;;;0.40;0.40;;;8.30;99.90;;;;;;5054316;28;20533;-85
2023/03/29 06:23:35;;;;;;;0.30;0.30;;;8.40;99.90;;;;;;5054422;28;20950;-85
2023/03/29 06:26:02;;;;;;;0.40;0.40;;;8.60;99.90;;;;;;5054121;28;20530;-85
2023/03/29 06:28:28;;;;;;;0.50;0.50;;;8.70;99.90;;;;;;5053909;28;20988;-85
2023/03/29 06:31:00;;;;;;;0.87;0.40;;;8.70;99.90;;;;;;5053969;28;20446;-85
2023/03/29 06:33:27;;;;;;;0.37;0.30;;;8.70;99.90;;;;;;5053875;28;20470;-85
2023/03/29 06:35:54;;;;;;;0.40;0.40;;;8.80;99.90;;;;;;5053926;28;20450;-84
2023/03/29 06:38:21;;;;;;;0.30;0.30;;;8.90;99.90;;;;;;5052814;28;20442;-85
2023/03/29 06:40:48;;;;;;;0.60;0.50;;;9.00;99.90;;;;;;5054241;28;20451;-85
2023/03/29 06:43:15;;;;;;;0.30;0.30;;;9.00;99.90;;;;;;5054367;28;20450;-85
2023/03/29 06:45:42;;;;;;;0.40;0.40;;;9.00;99.90;;;;;;5053285;28;20812;-85
2023/03/29 06:48:12;;;;;;;0.30;0.30;;;8.90;99.90;;;;;;5053586;28;20867;-85
2023/03/29 06:50:40;;;;;;;0.40;0.40;;;8.90;99.90;;;;;;5053493;28;20470;-85
2023/03/29 06:53:07;;;;;;;0.80;0.60;;;8.90;99.90;;;;;;5053315;28;20542;-84
2023/03/29 06:55:34;;;;;;;0.40;0.30;;;8.90;99.90;;;;;;5053528;28;20434;-84
2023/03/29 06:58:03;;;;;;;0.57;0.50;;;9.00;99.90;;;;;;5053264;28;20454;-85
2023/03/29 07:00:34;;;;;;;0.50;0.50;;;9.10;99.90;;;;;;5053477;28;20478;-85
2023/03/29 07:03:05;;;;;;;0.83;0.30;;;9.10;99.90;;;;;;5053120;28;20922;-85
2023/03/29 07:05:35;;;;;;;0.40;0.40;;;9.10;99.90;;;;;;5054601;28;20435;-85
2023/03/29 07:08:10;;;;;;;0.50;0.50;;;9.10;99.90;;;;;;5053626;28;20454;-85
2023/03/29 07:10:39;;;;;;;0.50;0.40;;;9.20;99.90;;;;;;5053506;28;20485;-85
2023/03/29 07:13:07;;;;;;;0.40;0.40;;;9.30;99.90;;;;;;5053440;28;20569;-85
2023/03/29 07:15:35;;;;;;;0.40;0.40;;;9.40;99.90;;;;;;5053590;28;20448;-85
2023/03/29 07:18:03;;;;;;;0.43;0.40;;;9.50;99.90;;;;;;5053260;28;20450;-85
2023/03/29 07:20:30;;;;;;;0.50;0.40;;;9.70;99.90;;;;;;5053166;28;20566;-85
2023/03/29 07:22:59;;;;;;;0.80;0.40;;;9.90;99.90;;;;;;5053254;28;20525;-85
2023/03/29 07:25:28;;;;;;;0.50;0.40;;;10.10;99.90;;;;;;5053325;28;20820;-85
2023/03/29 07:27:55;;;;;;;1.03;0.30;;;10.40;99.90;;;;;;5053897;28;20459;-85
2023/03/29 07:30:25;;;;;;;0.40;0.30;;;10.70;99.90;;;;;;5053154;28;20474;-85
2023/03/29 07:32:52;;;;;;;0.80;0.40;;;10.90;99.90;;;;;;5052866;28;20454;-85
2023/03/29 07:35:19;;;;;;;0.40;0.37;;;11.10;99.90;;;;;;5052898;28;20441;-85
2023/03/29 07:37:47;;;;;;;0.40;0.30;;;11.00;99.90;;;;;;5053124;28;20525;-84
2023/03/29 07:40:21;;;;;;;0.47;0.33;;;10.90;99.90;;;;;;5052955;28;20466;-85
2023/03/29 07:42:51;;;;;;;2.20;0.53;;;10.70;99.90;;;;;;5053058;28;20438;-85
2023/03/29 07:45:19;;;;;;;2.67;0.60;;;10.50;99.90;;;;;;5052895;28;20938;-80
2023/03/29 07:47:46;;;;;;;0.40;0.37;;;10.50;99.90;;;;;;5052961;28;20504;-80
2023/03/29 07:50:13;;;;;;;0.40;0.33;;;10.40;99.90;;;;;;5056180;28;20989;-80
2023/03/29 07:52:40;;;;;;;0.40;0.30;;;10.30;99.90;;;;;;5056499;28;20819;-80
2023/03/29 07:55:08;;;;;;;1.07;0.60;;;10.30;99.90;;;;;;5056328;28;20478;-80
2023/03/29 07:57:37;;;;;;;1.47;0.40;;;10.40;99.90;;;;;;5056071;28;20454;-80
2023/03/29 08:00:14;;;;;;;0.50;0.40;;;10.40;99.90;;;;;;5056356;28;20457;-80
2023/03/29 08:02:42;;;;;;;0.60;0.40;;;10.50;99.90;;;;;;5056325;28;20439;-80
2023/03/29 08:05:11;;;;;;;0.43;0.40;;;10.50;99.90;;;;;;5056306;28;20452;-80
2023/03/29 08:07:39;;;;;;;0.93;0.40;;;10.50;99.90;;;;;;5056078;28;20453;-80
2023/03/29 08:10:07;;;;;;;0.57;0.50;;;10.50;99.90;;;;;;5055805;28;20466;-80
2023/03/29 08:12:35;;;;;;;0.40;0.30;;;10.50;99.90;;;;;;5055998;28;20458;-80
2023/03/29 08:15:04;;;;;;;1.80;0.40;;;10.70;99.90;;;;;;5055759;28;20478;-81
2023/03/29 08:17:31;;;;;;;0.77;0.57;;;10.70;99.90;;;;;;5056091;28;20467;-80
2023/03/29 08:19:57;;;;;;;0.40;0.30;;;10.80;99.90;;;;;;5055893;28;20470;-80
2023/03/29 08:22:24;;;;;;;0.53;0.53;;;10.80;99.90;;;;;;5056177;28;20454;-80
2023/03/29 08:24:51;;;;;;;0.40;0.40;;;10.90;99.90;;;;;;5055685;28;20443;-80
2023/03/29 08:27:18;;;;;;;0.40;0.40;;;10.90;99.90;;;;;;5055849;28;20453;-80
2023/03/29 08:29:45;;;;;;;0.73;0.60;;;10.90;99.90;;;;;;5055739;28;20458;-80
2023/03/29 08:32:14;;;;;;;0.53;0.50;;;11.00;99.90;;;;;;5055735;28;20446;-80
2023/03/29 08:34:40;;;;;;;0.50;0.50;;;11.10;99.90;;;;;;5055705;28;20769;-80
2023/03/29 08:37:08;;;;;;;1.00;0.67;;;11.20;99.90;;;;;;5056116;28;20956;-80
2023/03/29 08:39:35;;;;;;;1.23;0.40;;;11.20;99.90;;;;;;5055268;28;21001;-80
2023/03/29 08:42:20;;;;;;;0.50;0.43;;;11.30;99.90;;;;;;5055377;28;20886;-80
2023/03/29 08:45:00;;;;;;;1.90;0.83;;;11.30;99.90;;;;;;5055293;28;20521;-80
2023/03/29 08:47:36;;;;;;;0.40;0.40;;;11.40;99.90;;;;;;5055724;28;20434;-80
2023/03/29 08:50:03;;;;;;;2.10;0.50;;;11.30;99.90;;;;;;5055090;28;20461;-80
2023/03/29 08:52:35;;;;;;;0.40;0.40;;;11.40;99.90;;;;;;5055401;28;20446;-80
2023/03/29 08:55:07;;;;;;;3.33;0.60;;;11.40;99.90;;;;;;5054985;28;20820;-80
2023/03/29 08:57:40;;;;;;;0.97;0.50;;;11.40;99.90;;;;;;5055290;28;20542;-80
2023/03/29 09:00:17;;;;;;;0.40;0.30;;;11.50;99.90;;;;;;5054985;28;20477;-80
2023/03/29 09:02:46;;;;;;;0.83;0.83;;;11.60;99.90;;;;;;5055510;28;20526;-80
2023/03/29 09:05:21;;;;;;;0.87;0.30;;;11.60;99.90;;;;;;5055197;28;20447;-80
2023/03/29 09:07:48;;;;;;;0.43;0.40;;;11.60;99.90;;;;;;5055168;28;20442;-83
2023/03/29 09:10:17;;;;;;;2.80;0.63;;;11.70;99.90;;;;;;5054754;28;20470;-82
2023/03/29 09:12:58;;;;;;;0.60;0.60;;;11.70;99.90;;;;;;5055434;28;20822;-82
2023/03/29 09:15:30;;;;;;;0.60;0.50;;;11.80;99.90;;;;;;5054632;28;20462;-83
2023/03/29 09:18:07;;;;;;;1.13;0.87;;;11.80;99.90;;;;;;5055026;28;20431;-83
2023/03/29 09:20:44;;;;;;;0.40;0.30;;;11.90;99.90;;;;;;5054545;28;20470;-82
2023/03/29 09:23:46;;;;;;;0.87;0.50;;;12.10;99.90;;;;;;5054899;28;20918;-82
2023/03/29 09:26:22;;;;;;;0.40;0.40;;;12.30;99.90;;;;;;5055742;28;20426;-81
2023/03/29 09:28:59;;;;;;;0.87;0.70;;;12.60;99.90;;;;;;5054931;28;20458;-81
2023/03/29 09:31:29;;;;;;;0.40;0.40;;;13.00;99.90;;;;;;5054706;28;20438;-82
2023/03/29 09:34:01;;;;;;;0.60;0.40;;;13.40;99.90;;;;;;5054341;28;20466;-81
2023/03/29 09:36:35;;;;;;;0.90;0.50;;;13.70;99.90;;;;;;5054641;28;20450;-81
2023/03/29 09:39:03;;;;;;;0.60;0.50;;;13.90;99.90;;;;;;5054504;28;20485;-81
2023/03/29 09:41:34;;;;;;;0.80;0.70;;;14.00;99.90;;;;;;5054155;28;20462;-81
2023/03/29 09:44:06;;;;;;;0.70;0.40;;;14.10;99.90;;;;;;5054563;28;20965;-81
2023/03/29 09:46:39;;;;;;;1.00;0.60;;;14.30;99.90;;;;;;5054363;28;20439;-81
2023/03/29 09:49:13;;;;;;;0.80;0.60;;;14.30;99.90;;;;;;5053983;28;20496;-81
2023/03/29 09:51:42;;;;;;;0.50;0.43;;;14.10;99.90;;;;;;5054269;28;20534;-81
2023/03/29 09:54:10;;;;;;;0.40;0.40;;;14.10;99.90;;;;;;5054184;28;20490;-81
2023/03/29 09:56:38;;;;;;;0.43;0.43;;;14.00;99.90;;;;;;5053857;28;20529;-82
2023/03/29 09:59:04;;;;;;;1.20;0.53;;;14.10;99.90;;;;;;5054017;28;20524;-81
2023/03/29 10:01:37;;;;;;;0.50;0.50;;;14.10;99.90;;;;;;5054084;28;20446;-81
2023/03/29 10:04:08;;;;;;;0.77;0.40;;;14.20;99.90;;;;;;5054476;28;20450;-81
2023/03/29 10:06:35;;;;;;;0.93;0.40;;;14.40;99.90;;;;;;5054050;28;20411;-81
2023/03/29 10:09:03;;;;;;;1.00;0.40;;;14.80;99.90;;;;;;5053876;28;20558;-81
2023/03/29 10:11:31;;;;;;;0.70;0.57;;;15.20;99.40;;;;;;5052748;28;20500;-81
2023/03/29 10:14:02;;;;;;;4.10;0.80;;;15.50;99.10;;;;;;5053448;28;20485;-81
2023/03/29 10:16:30;;;;;;;0.97;0.70;;;15.90;99.00;;;;;;5053615;28;20419;-81
2023/03/29 10:18:57;;;;;;;0.80;0.60;;;16.00;98.00;;;;;;5053663;28;20474;-81
2023/03/29 10:21:29;;;;;;;0.80;0.50;;;16.50;98.00;;;;;;5053716;28;20454;-82
2023/03/29 10:23:59;;;;;;;1.33;0.60;;;17.10;96.90;;;;;;5053741;28;20426;-81
2023/03/29 10:26:31;;;;;;;0.63;0.63;;;17.90;96.80;;;;;;5053677;28;20454;-81
2023/03/29 10:29:00;;;;;;;0.80;0.60;;;18.90;95.10;;;;;;5053290;28;20471;-82
2023/03/29 10:31:30;;;;;;;0.80;0.60;;;19.90;90.90;;;;;;5053439;28;20486;-81
2023/03/29 10:33:57;;;;;;;0.93;0.73;;;20.30;90.00;;;;;;5053465;28;20482;-81
2023/03/29 10:36:27;;;;;;;0.70;0.70;;;21.00;87.00;;;;;;5053172;28;20499;-81
2023/03/29 10:38:57;;;;;;;0.70;0.57;;;21.80;80.90;;;;;;5053286;28;20473;-82
2023/03/29 10:41:26;;;;;;;0.60;0.50;;;22.50;77.50;;;;;;5053451;28;20456;-82
2023/03/29 10:43:52;;;;;;;1.63;0.70;;;22.90;72.80;;;;;;5053401;28;20515;-82
2023/03/29 10:46:22;;;;;;;0.70;0.67;;;22.70;70.00;;;;;;5053114;28;20536;-82
2023/03/29 10:48:50;;;;;;;1.70;0.60;;;22.00;68.90;;;;;;5053265;28;20476;-82
2023/03/29 10:51:18;;;;;;;0.87;0.70;;;21.50;71.30;;;;;;5053366;28;20461;-82
2023/03/29 10:53:47;;;;;;;0.60;0.60;;;20.60;70.20;;;;;;5053124;28;20807;-82
2023/03/29 10:56:30;;;;;;;1.57;0.60;;;20.20;73.20;;;;;;5053227;28;20492;-82
2023/03/29 10:59:13;;;;;;;0.63;0.60;;;20.00;72.60;;;;;;5053450;28;20477;-82
2023/03/29 11:01:48;;;;;;;0.50;0.50;;;19.70;73.10;;;;;;5053193;28;20430;-82
2023/03/29 11:04:24;;;;;;;0.87;0.87;;;19.50;72.50;;;;;;5052957;28;20430;-82
2023/03/29 11:07:00;;;;;;;0.50;0.50;;;19.60;74.70;;;;;;5054083;28;20469;-82
2023/03/29 11:09:46;;;;;;;0.70;0.60;;;20.30;75.10;;;;;;5053335;28;20485;-82
2023/03/29 11:12:20;;;;;;;0.60;0.60;;;21.30;73.10;;;;;;5052977;28;20411;-82
2023/03/29 11:15:02;;;;;;;0.40;0.40;;;21.30;69.60;;;;;;5052687;28;20987;-82
2023/03/29 11:17:43;;;;;;;0.60;0.60;;;20.50;68.80;;;;;;5053594;28;20796;-82
2023/03/29 11:20:30;;;;;;;0.50;0.50;;;20.30;67.30;;;;;;5053343;28;20469;-82
2023/03/29 11:23:09;;;;;;;0.80;0.57;;;19.90;67.90;;;;;;5053604;28;20430;-82
2023/03/29 11:25:53;;;;;;;0.50;0.50;;;19.70;66.50;;;;;;5057244;28;20429;-82
2023/03/29 11:28:27;;;;;;;0.90;0.60;;;19.40;65.00;;;;;;5057440;28;20446;-82
2023/03/29 11:31:02;;;;;;;0.67;0.57;;;19.30;68.50;;;;;;5057689;28;20452;-82
2023/03/29 11:33:42;;;;;;;0.53;0.53;;;19.00;64.50;;;;;;5056712;28;20426;-81
2023/03/29 11:36:15;;;;;;;2.10;1.03;;;18.90;64.90;;;;;;5056789;28;20474;-82
2023/03/29 11:38:53;;;;;;;2.40;0.50;;;18.60;63.80;;;;;;5057121;28;20474;-81
2023/03/29 11:41:24;;;;;;;1.67;0.53;;;18.50;64.30;;;;;;5056826;28;20457;-81
2023/03/29 11:43:55;;;;;;;0.80;0.60;;;18.30;63.70;;;;;;5057038;28;20431;-82
2023/03/29 11:46:26;;;;;;;1.07;0.50;;;18.10;65.30;;;;;;5056615;28;20439;-82
2023/03/29 11:49:00;;;;;;;0.40;0.40;;;18.10;67.70;;;;;;5056543;28;20474;-82
2023/03/29 11:51:32;;;;;;;0.40;0.40;;;18.20;66.00;;;;;;5056563;28;20430;-82
2023/03/29 11:54:03;;;;;;;0.50;0.50;;;18.20;65.70;;;;;;5056464;28;20537;-82
2023/03/29 11:56:40;;;;;;;1.33;0.77;;;18.20;66.20;;;;;;5056320;28;20874;-82
2023/03/29 11:59:11;;;;;;;0.40;0.37;;;18.30;66.30;;;;;;5056370;28;20476;-82
2023/03/29 12:01:43;;;;;;;1.03;0.60;;;18.40;65.40;;;;;;5056401;28;20767;-82
2023/03/29 12:04:16;;;;;;;0.90;0.80;;;18.40;66.30;;;;;;5056155;28;20411;-82
2023/03/29 12:06:49;;;;;;;0.60;0.60;;;18.20;66.10;;;;;;5056022;28;20446;-81
2023/03/29 12:09:26;;;;;;;0.97;0.73;;;18.10;65.90;;;;;;5055755;28;20446;-82
2023/03/29 12:11:59;;;;;;;0.80;0.53;;;18.00;67.90;;;;;;5056650;28;20453;-82
2023/03/29 12:14:32;;;;;;;0.40;0.40;;;18.00;66.20;;;;;;5056317;28;20844;-81
2023/03/29 12:17:01;;;;;;;1.50;0.37;;;17.90;67.30;;;;;;5056045;28;20426;-82
2023/03/29 12:19:33;;;;;;;0.97;0.50;;;17.80;66.60;;;;;;5056634;28;20474;-82
2023/03/29 12:22:01;;;;;;;0.40;0.37;;;17.60;66.90;;;;;;5056833;28;20443;-82
2023/03/29 12:24:31;;;;;;;0.70;0.40;;;17.50;68.20;;;;;;5055926;28;20446;-82
2023/03/29 12:27:12;;;;;;;0.50;0.40;;;17.30;68.20;;;;;;5055919;28;20431;-81
2023/03/29 12:29:53;;;;;;;0.50;0.50;;;17.00;68.40;;;;;;5055843;28;20474;-82
2023/03/29 12:32:36;;;;;;;0.50;0.50;;;16.90;71.50;;;;;;5055825;28;20438;-82
2023/03/29 12:35:32;;;;;;;0.63;0.40;;;16.70;71.50;;;;;;5055144;28;20569;-82
2023/03/29 12:38:08;;;;;;;3.33;0.70;;;16.50;70.30;;;;;;5049728;28;20457;-81
2023/03/29 12:40:41;;;;;;;0.50;0.50;;;16.10;75.30;;;;;;5055567;28;20466;-82
2023/03/29 12:43:18;;;;;;;0.87;0.30;;;15.90;76.30;;;;;;5055628;28;20484;-82
2023/03/29 12:45:47;;;;;;;0.50;0.40;;;15.90;77.40;;;;;;5055556;28;20786;-82
2023/03/29 12:48:17;;;;;;;0.60;0.60;;;16.00;80.20;;;;;;5055511;28;20454;-82
2023/03/29 12:50:48;;;;;;;1.10;0.40;;;16.10;78.60;;;;;;5055112;28;20462;-82
2023/03/29 12:53:22;;;;;;;0.40;0.40;;;16.30;79.90;;;;;;5055431;28;20438;-82
2023/03/29 12:55:55;;;;;;;0.60;0.60;;;16.30;80.40;;;;;;5055229;28;20465;-82
2023/03/29 12:58:41;;;;;;;0.90;0.47;;;16.10;80.30;;;;;;5054991;28;20492;-82
2023/03/29 13:01:10;;;;;;;0.90;0.50;;;16.00;85.70;;;;;;5055310;28;20478;-82
2023/03/29 13:03:47;;;;;;;0.43;0.43;;;15.80;86.00;;;;;;5055240;28;20478;-82
2023/03/29 13:06:28;;;;;;;0.50;0.50;;;15.80;85.40;;;;;;5054897;28;20842;-81
2023/03/29 13:09:00;;;;;;;0.50;0.40;;;15.70;84.80;;;;;;5055632;28;21051;-88